Pearl Venus — 3FWZ6 — position and weather

sailwx.info

Track history (hours):
 
Tides and Currents Weather Stations Pressure Air Temp Water Temp Dewpoint Dewpoint Depression Visibility Wind Speed Wind Dir Waves Ship Positions

Pearl Venus

Last reported at 2018-Apr-05 15:27 UTC. Time now 2018-Apr-20 02:50 UTC.
Position N 00°13' W 047°34'.
Warning: this ship's position is 14 days out of date.

Length 190 m; draft 12.2 m.

Type: Cargo ship. MMSI: 355236000.

Date/timePositionNaut miles runAvg speedWind from/ knotsBaromVisibWave heightAir tempDewpointWater temp
2018-Apr-05 15:27N 00°13' W 047°34'711.5
2018-Apr-05 14:49N 00°06' W 047°36'311.2
2018-Apr-05 14:30N 00°03' W 047°37'510.5
2018-Apr-05 14:00S 00°02' W 047°39'5 9.4
2018-Apr-05 13:30S 00°06' W 047°41'5 9.1
2018-Apr-05 13:00S 00°11' W 047°42'4 8.2
2018-Apr-05 12:30S 00°12' W 047°46'510.1
2018-Apr-05 12:00S 00°14' W 047°51'5 9.9
2018-Apr-05 11:30S 00°16' W 047°55'510.7
2018-Apr-05 11:00S 00°19' W 047°60'612.1
2018-Apr-05 10:31S 00°21' W 048°05'1012.7
2018-Apr-05 09:45S 00°26' W 048°13'312.6
2018-Apr-05 09:30S 00°28' W 048°15'713.6
2018-Apr-05 09:00S 00°33' W 048°20'713.8
2018-Apr-05 08:30S 00°39' W 048°24'714.1
2018-Apr-05 08:00S 00°45' W 048°27'612.3
2018-Apr-05 07:31S 00°51' W 048°29'5 9.3
2018-Apr-05 07:00S 00°56' W 048°27'4 8.4
2018-Apr-05 06:30S 00°60' W 048°27'510.7
2018-Apr-05 06:00S 01°04' W 048°30'4 7.6
2018-Apr-05 05:29S 01°08' W 048°32'2 4.5
2018-Apr-05 05:00S 01°10' W 048°32'5 9.1
2018-Apr-05 04:30S 01°13' W 048°35'5 9.3
2018-Apr-05 03:58S 01°17' W 048°38'510.3
2018-Apr-05 03:30S 01°21' W 048°41'510.8
2018-Apr-05 03:00S 01°26' W 048°43'510.8
2018-Apr-05 02:30S 01°31' W 048°45'2 3.2
2018-Apr-05 02:00S 01°33' W 048°45'0 0.1
2018-Apr-05 01:00S 01°32' W 048°45'0 0.0
2018-Apr-05 00:27S 01°32' W 048°45'0 0.0
2018-Apr-05 00:00S 01°32' W 048°45'0 0.0
2018-Apr-04 23:27S 01°32' W 048°45'0 0.0
2018-Apr-04 09:09S 01°32' W 048°45'0 0.0
2018-Apr-04 02:36S 01°32' W 048°45'0 0.0
2018-Apr-04 02:18S 01°32' W 048°45'0 0.0
2018-Apr-04 00:48S 01°32' W 048°45'0 0.0
2018-Apr-04 00:18S 01°32' W 048°45'0 0.0
2018-Apr-03 22:09S 01°32' W 048°45'0 0.0
2018-Apr-03 21:54S 01°32' W 048°45'0 0.0
2018-Apr-03 21:18S 01°32' W 048°45'0 0.0
2018-Apr-03 19:16S 01°32' W 048°45'0 0.0
2018-Apr-03 18:00S 01°32' W 048°45'0 0.0
2018-Apr-03 09:48S 01°32' W 048°45'0 0.0
2018-Apr-02 18:27S 01°32' W 048°45'0 0.0
2018-Apr-02 17:47S 01°32' W 048°45'0 0.0
2018-Apr-02 17:09S 01°32' W 048°45'0 0.0
2018-Apr-02 17:00S 01°32' W 048°45'0 0.0
2018-Apr-02 16:30S 01°32' W 048°45'0 0.0
2018-Apr-02 15:23S 01°32' W 048°45'0 0.0
2018-Apr-02 14:58S 01°32' W 048°45'0 0.0
2018-Apr-02 06:18S 01°32' W 048°45'0 0.0
2018-Apr-02 05:54S 01°32' W 048°45'0 0.0
2018-Apr-02 05:27S 01°32' W 048°45'0 0.0
2018-Apr-02 04:45S 01°32' W 048°45'0 0.0
2018-Apr-02 04:27S 01°32' W 048°45'0 0.0
2018-Apr-02 01:33S 01°32' W 048°45'0 0.0
2018-Apr-02 01:21S 01°32' W 048°45'0 0.0
2018-Apr-02 00:57S 01°32' W 048°45'0 0.0
2018-Apr-01 21:39S 01°32' W 048°45'0 0.0
2018-Apr-01 21:21S 01°32' W 048°45'0 0.0
2018-Apr-01 20:51S 01°32' W 048°45'0 0.0
2018-Apr-01 20:21S 01°32' W 048°45'0 0.0
2018-Apr-01 19:57S 01°32' W 048°45'0 0.0
2018-Apr-01 19:27S 01°32' W 048°45'0 0.0
2018-Apr-01 18:39S 01°32' W 048°45'0 0.0
2018-Apr-01 18:09S 01°32' W 048°45'0 0.0
2018-Apr-01 17:52S 01°32' W 048°45'0 0.0
2018-Apr-01 17:24S 01°32' W 048°45'0 0.0
2018-Apr-01 16:39S 01°32' W 048°45'0 0.0
2018-Apr-01 16:28S 01°32' W 048°45'0 0.0
2018-Apr-01 15:57S 01°32' W 048°45'0 0.0
2018-Apr-01 15:27S 01°32' W 048°45'0 0.0
2018-Apr-01 14:46S 01°32' W 048°45'0 0.0
2018-Apr-01 13:51S 01°32' W 048°45'0 0.0
2018-Apr-01 13:27S 01°32' W 048°45'0 0.0
2018-Apr-01 11:09S 01°32' W 048°45'0 0.0
2018-Apr-01 10:57S 01°32' W 048°45'0 0.0
2018-Apr-01 10:27S 01°32' W 048°45'0 0.0
2018-Apr-01 10:00S 01°32' W 048°45'0 0.0
2018-Apr-01 09:28S 01°32' W 048°45'0 0.0
2018-Apr-01 08:53S 01°32' W 048°45'0 0.0
2018-Apr-01 08:27S 01°32' W 048°45'0 0.0
2018-Apr-01 07:57S 01°32' W 048°45'0 0.0
2018-Apr-01 07:28S 01°32' W 048°45'0 0.0
2018-Apr-01 06:57S 01°32' W 048°45'0 0.0
2018-Apr-01 06:25S 01°32' W 048°45'0 0.0
2018-Apr-01 06:00S 01°32' W 048°45'0 0.0
2018-Apr-01 05:09S 01°32' W 048°45'0 0.0
2018-Apr-01 04:03S 01°32' W 048°45'0 0.0
2018-Apr-01 01:03S 01°32' W 048°45'0 0.0
2018-Mar-31 18:57S 01°32' W 048°45'0 0.0
2018-Mar-31 18:30S 01°32' W 048°45'0 0.0
2018-Mar-31 17:51S 01°32' W 048°45'0 0.0
2018-Mar-31 17:21S 01°32' W 048°45'0 0.0
2018-Mar-31 15:57S 01°32' W 048°45'0 0.0
2018-Mar-31 14:33S 01°32' W 048°45'0 0.0
2018-Mar-31 14:21S 01°32' W 048°45'0 0.0
2018-Mar-31 10:25S 01°32' W 048°45'0 0.0
2018-Mar-31 09:34S 01°32' W 048°45'0 0.0
2018-Mar-31 09:30S 01°32' W 048°45'0 0.0
2018-Mar-31 08:13S 01°32' W 048°45'0 0.0
2018-Mar-31 08:00S 01°32' W 048°45'0 0.0
2018-Mar-31 07:19S 01°32' W 048°45'0 0.0
2018-Mar-31 07:00S 01°32' W 048°45'0 0.0
2018-Mar-31 06:30S 01°32' W 048°45'0 0.0
2018-Mar-31 05:43S 01°32' W 048°45'0 0.0
2018-Mar-31 05:30S 01°32' W 048°45'0 0.0
2018-Mar-31 04:36S 01°32' W 048°45'0 0.0
2018-Mar-31 04:30S 01°32' W 048°45'0 0.0
2018-Mar-31 04:00S 01°32' W 048°45'0 0.0
2018-Mar-31 03:30S 01°32' W 048°45'0 0.0
2018-Mar-31 01:54S 01°32' W 048°45'0 0.0
2018-Mar-31 01:30S 01°32' W 048°45'0 0.0
2018-Mar-31 01:00S 01°32' W 048°45'0 0.0
2018-Mar-31 00:30S 01°32' W 048°45'0 0.0
2018-Mar-31 00:00S 01°32' W 048°45'0 0.0
2018-Mar-30 23:27S 01°32' W 048°45'0 0.0
2018-Mar-30 23:00S 01°32' W 048°45'0 0.0
2018-Mar-30 22:21S 01°32' W 048°45'0 0.0
2018-Mar-30 19:27S 01°32' W 048°45'0 0.0
2018-Mar-30 19:00S 01°32' W 048°45'0 0.0
2018-Mar-30 18:25S 01°32' W 048°45'0 0.0
2018-Mar-30 17:54S 01°32' W 048°45'0 0.0
2018-Mar-30 16:39S 01°32' W 048°45'0 0.0
2018-Mar-30 13:58S 01°32' W 048°45'1 1.6
2018-Mar-30 13:29S 01°32' W 048°46'2 3.8
2018-Mar-30 13:00S 01°31' W 048°46'0 0.1
2018-Mar-30 12:28S 01°31' W 048°46'0 0.0
2018-Mar-30 11:55S 01°31' W 048°46'0 0.0
2018-Mar-30 11:28S 01°31' W 048°46'0 0.4
2018-Mar-30 10:58S 01°30' W 048°46'0 0.1
2018-Mar-30 10:10S 01°30' W 048°46'0 0.0
2018-Mar-30 09:49S 01°30' W 048°46'0 0.0
2018-Mar-30 09:13S 01°30' W 048°46'0 0.0
2018-Mar-30 08:55S 01°30' W 048°46'0 0.0
2018-Mar-30 08:28S 01°30' W 048°46'0 0.0
2018-Mar-30 07:58S 01°30' W 048°46'0 0.0
2018-Mar-30 07:25S 01°30' W 048°46'0 0.0
2018-Mar-30 06:53S 01°30' W 048°46'0 0.0
2018-Mar-30 06:28S 01°30' W 048°46'0 0.0
2018-Mar-30 05:59S 01°30' W 048°46'0 0.0
2018-Mar-30 05:01S 01°30' W 048°46'0 0.1
2018-Mar-30 04:59S 01°30' W 048°46'0 0.2
2018-Mar-30 04:25S 01°30' W 048°46'0 0.2
2018-Mar-30 03:58S 01°31' W 048°46'0 0.1
2018-Mar-30 03:25S 01°31' W 048°46'0 0.0
2018-Mar-30 02:34S 01°31' W 048°46'0 0.0
2018-Mar-30 01:58S 01°31' W 048°46'0 0.0
2018-Mar-30 01:28S 01°31' W 048°46'0 0.0
2018-Mar-30 00:58S 01°31' W 048°46'0 0.0
2018-Mar-30 00:28S 01°31' W 048°46'0 0.0
2018-Mar-29 23:58S 01°31' W 048°46'0 0.0
2018-Mar-29 23:28S 01°31' W 048°46'0 0.0
2018-Mar-29 22:58S 01°31' W 048°46'0 0.0
2018-Mar-29 22:29S 01°31' W 048°46'0 0.2
2018-Mar-29 21:58S 01°31' W 048°46'0 0.3
2018-Mar-29 21:28S 01°30' W 048°46'0 0.1
2018-Mar-29 20:58S 01°30' W 048°46'0 0.0
2018-Mar-29 20:28S 01°30' W 048°46'0 0.0
2018-Mar-29 19:58S 01°30' W 048°46'0 0.0
2018-Mar-29 19:28S 01°30' W 048°46'0 0.0
2018-Mar-29 18:58S 01°30' W 048°46'0 0.0
2018-Mar-29 18:28S 01°30' W 048°46'0 0.1
2018-Mar-29 17:58S 01°30' W 048°46'0 0.1
2018-Mar-29 17:28S 01°31' W 048°46'0 0.1
2018-Mar-29 16:58S 01°31' W 048°46'0 0.0
2018-Mar-29 16:25S 01°31' W 048°46'0 0.3
2018-Mar-29 15:58S 01°31' W 048°46'0 0.1
2018-Mar-29 15:28S 01°31' W 048°46'0 0.1
2018-Mar-29 14:58S 01°31' W 048°46'0 0.0
2018-Mar-29 14:28S 01°31' W 048°46'0 0.0
2018-Mar-29 13:58S 01°31' W 048°46'0 0.1
2018-Mar-29 13:22S 01°31' W 048°46'0 0.0
2018-Mar-29 12:52S 01°31' W 048°46'0 0.1
2018-Mar-29 12:28S 01°31' W 048°46'0 0.0
2018-Mar-29 11:58S 01°31' W 048°46'0 0.0
2018-Mar-29 11:28S 01°31' W 048°46'0 0.1
2018-Mar-29 10:46S 01°31' W 048°46'0 0.0
2018-Mar-29 10:29S 01°31' W 048°46'0 0.2
2018-Mar-29 09:58S 01°30' W 048°46'0 0.3
2018-Mar-29 09:28S 01°30' W 048°46'0 0.1
2018-Mar-29 08:58S 01°30' W 048°46'0 0.1
2018-Mar-29 08:28S 01°30' W 048°46'0 0.0
2018-Mar-29 07:58S 01°30' W 048°46'0 0.1
2018-Mar-29 07:29S 01°30' W 048°46'0 0.0
2018-Mar-29 06:58S 01°30' W 048°46'0 0.0
2018-Mar-29 06:29S 01°30' W 048°46'0 0.0
2018-Mar-29 05:58S 01°30' W 048°46'0 0.0
2018-Mar-29 05:28S 01°30' W 048°46'0 0.0
2018-Mar-29 04:58S 01°30' W 048°46'0 0.1
2018-Mar-29 04:28S 01°30' W 048°46'0 0.4
2018-Mar-29 03:58S 01°30' W 048°46'0 0.1
2018-Mar-29 03:28S 01°31' W 048°46'0 0.0
2018-Mar-29 02:58S 01°31' W 048°46'0 0.0
2018-Mar-29 02:28S 01°31' W 048°46'0 0.0
2018-Mar-29 01:58S 01°31' W 048°46'0 0.0
2018-Mar-29 01:28S 01°31' W 048°46'0 0.0
2018-Mar-29 00:58S 01°31' W 048°46'0 0.0
2018-Mar-29 00:29S 01°31' W 048°46'0 0.0
2018-Mar-28 23:58S 01°31' W 048°46'0 0.0
2018-Mar-28 23:29S 01°31' W 048°46'0 0.0
2018-Mar-28 22:58S 01°31' W 048°46'0 0.0
2018-Mar-28 22:22S 01°31' W 048°46'0 0.0
2018-Mar-28 21:58S 01°31' W 048°46'0 0.0
2018-Mar-28 21:28S 01°31' W 048°46'0 0.2
2018-Mar-28 20:58S 01°31' W 048°46'0 0.2
2018-Mar-28 20:28S 01°30' W 048°46'0 0.1
2018-Mar-28 19:55S 01°30' W 048°46'0 0.0
2018-Mar-28 19:16S 01°30' W 048°46'0 0.1
2018-Mar-28 18:55S 01°30' W 048°46'0 0.3
2018-Mar-28 18:28S 01°30' W 048°46'0 0.0
2018-Mar-28 17:58S 01°30' W 048°46'0 0.0
2018-Mar-28 17:28S 01°30' W 048°46'0 0.0
2018-Mar-28 16:37S 01°30' W 048°46'0 0.0
2018-Mar-28 16:28S 01°30' W 048°46'0 0.2
2018-Mar-28 15:49S 01°31' W 048°46'0 0.2
2018-Mar-28 15:28S 01°31' W 048°46'0 0.1
2018-Mar-28 14:58S 01°31' W 048°46'0 0.1
2018-Mar-28 14:25S 01°31' W 048°46'0 0.0
2018-Mar-28 13:58S 01°31' W 048°46'0 0.0
2018-Mar-28 12:10S 01°31' W 048°46'0 0.0
2018-Mar-28 11:55S 01°31' W 048°46'0 0.0
2018-Mar-28 11:19S 01°31' W 048°46'0 0.0
2018-Mar-28 10:58S 01°31' W 048°46'0 0.0
2018-Mar-28 10:13S 01°31' W 048°46'0 0.0
2018-Mar-28 09:58S 01°31' W 048°46'0 0.0
2018-Mar-28 09:28S 01°31' W 048°46'0 0.3
2018-Mar-28 08:58S 01°30' W 048°46'0 0.2
2018-Mar-28 08:28S 01°30' W 048°46'0 0.1
2018-Mar-28 07:58S 01°30' W 048°46'0 0.0
2018-Mar-28 07:28S 01°30' W 048°46'0 0.0
2018-Mar-28 06:58S 01°30' W 048°46'0 0.0
2018-Mar-28 06:28S 01°30' W 048°46'0 0.0
2018-Mar-28 05:59S 01°30' W 048°46'0 0.0
2018-Mar-28 05:28S 01°30' W 048°46'0 0.0
2018-Mar-28 04:58S 01°30' W 048°46'0 0.0
2018-Mar-28 04:28S 01°30' W 048°46'0 0.1
2018-Mar-28 03:58S 01°30' W 048°46'0 0.0
2018-Mar-28 03:28S 01°30' W 048°46'0 0.3
2018-Mar-28 02:58S 01°30' W 048°46'0 0.4
2018-Mar-28 02:28S 01°31' W 048°46'0 0.0
2018-Mar-28 01:58S 01°31' W 048°46'0 0.1
2018-Mar-28 01:28S 01°31' W 048°46'0 0.1
2018-Mar-28 00:58S 01°31' W 048°46'0 0.0
2018-Mar-28 00:28S 01°31' W 048°46'0 0.0
2018-Mar-27 23:58S 01°31' W 048°46'0 0.0
2018-Mar-27 23:28S 01°31' W 048°46'0 0.0
2018-Mar-27 22:58S 01°31' W 048°46'0 0.1
2018-Mar-27 22:28S 01°31' W 048°46'0 0.0
2018-Mar-27 21:58S 01°31' W 048°46'0 0.1
2018-Mar-27 21:28S 01°31' W 048°46'0 0.0
2018-Mar-27 20:58S 01°31' W 048°46'0 0.1
2018-Mar-27 20:28S 01°31' W 048°46'0 0.2
2018-Mar-27 19:58S 01°31' W 048°46'0 0.1
2018-Mar-27 19:28S 01°31' W 048°46'0 0.1
2018-Mar-27 18:58S 01°30' W 048°46'0 0.1
2018-Mar-27 18:28S 01°30' W 048°46'0 0.0
2018-Mar-27 17:58S 01°30' W 048°46'0 0.0
2018-Mar-27 17:28S 01°30' W 048°46'0 0.0
2018-Mar-27 16:58S 01°30' W 048°46'0 0.0
2018-Mar-27 16:28S 01°30' W 048°46'0 0.0
2018-Mar-27 15:58S 01°30' W 048°46'0 0.0
2018-Mar-27 15:28S 01°30' W 048°46'0 0.2
2018-Mar-27 14:58S 01°31' W 048°46'0 0.2
2018-Mar-27 14:26S 01°31' W 048°46'0 0.2
2018-Mar-27 13:58S 01°31' W 048°46'0 0.1
2018-Mar-27 13:28S 01°31' W 048°46'0 0.0
2018-Mar-27 12:58S 01°31' W 048°46'0 0.0
2018-Mar-27 12:28S 01°31' W 048°46'0 0.0
2018-Mar-27 11:58S 01°31' W 048°46'0 0.0
2018-Mar-27 11:28S 01°31' W 048°46'0 0.0
2018-Mar-27 10:46S 01°31' W 048°46'0 0.0
2018-Mar-27 10:28S 01°31' W 048°46'0 0.0
2018-Mar-27 09:52S 01°31' W 048°46'0 0.0
2018-Mar-27 09:28S 01°31' W 048°46'0 0.0
2018-Mar-27 08:59S 01°31' W 048°46'0 0.0
2018-Mar-27 08:22S 01°31' W 048°46'0 0.2
2018-Mar-27 07:59S 01°30' W 048°46'0 0.2
2018-Mar-27 07:28S 01°30' W 048°46'0 0.1
2018-Mar-27 06:59S 01°30' W 048°46'0 0.0
2018-Mar-27 06:28S 01°30' W 048°46'0 0.0
2018-Mar-27 05:55S 01°30' W 048°46'0 0.0
2018-Mar-27 05:28S 01°30' W 048°46'0 0.0
2018-Mar-27 04:58S 01°30' W 048°46'0 0.0
2018-Mar-27 04:28S 01°30' W 048°46'0 0.0
2018-Mar-27 03:58S 01°30' W 048°46'0 0.0
2018-Mar-27 03:28S 01°30' W 048°46'0 0.0
2018-Mar-27 02:58S 01°30' W 048°46'0 0.0
2018-Mar-27 02:28S 01°30' W 048°46'0 0.1
2018-Mar-27 01:58S 01°30' W 048°46'0 0.2
2018-Mar-27 01:28S 01°30' W 048°46'0 0.1
2018-Mar-27 00:58S 01°31' W 048°46'0 0.1
2018-Mar-27 00:28S 01°31' W 048°46'0 0.1
2018-Mar-26 23:58S 01°31' W 048°46'0 0.0
2018-Mar-26 23:28S 01°31' W 048°46'0 0.0
2018-Mar-26 22:58S 01°31' W 048°46'0 0.1
2018-Mar-26 22:28S 01°31' W 048°46'0 0.0
2018-Mar-26 21:58S 01°31' W 048°46'0 0.0
2018-Mar-26 21:28S 01°31' W 048°46'0 0.0
2018-Mar-26 20:58S 01°31' W 048°46'0 0.1
2018-Mar-26 20:28S 01°31' W 048°46'0 0.0
2018-Mar-26 19:58S 01°31' W 048°46'0 0.0
2018-Mar-26 19:28S 01°31' W 048°46'0 0.2
2018-Mar-26 18:58S 01°31' W 048°46'0 0.1
2018-Mar-26 18:28S 01°31' W 048°46'0 0.1
2018-Mar-26 17:58S 01°30' W 048°46'0 0.0
2018-Mar-26 17:28S 01°30' W 048°46'0 0.0
2018-Mar-26 16:58S 01°30' W 048°46'0 0.0
2018-Mar-26 16:25S 01°30' W 048°46'  
Track history (hours):
 
Tides and Currents Weather Stations Pressure Air Temp Water Temp Dewpoint Dewpoint Depression Visibility Wind Speed Wind Dir Waves Ship Positions

Pearl Venus

Last reported at 2018-Apr-05 15:27 UTC. Time now 2018-Apr-20 02:50 UTC.
Position N 00°13' W 047°34'.
Warning: this ship's position is 14 days out of date.

Length 190 m; draft 12.2 m.

Type: Cargo ship. MMSI: 355236000.

Date/timePositionNaut miles runAvg speedWind from/ knotsBaromVisibWave heightAir tempDewpointWater temp
2018-Apr-05 15:27N 00°13' W 047°34'711.5
2018-Apr-05 14:49N 00°06' W 047°36'311.2
2018-Apr-05 14:30N 00°03' W 047°37'510.5
2018-Apr-05 14:00S 00°02' W 047°39'5 9.4
2018-Apr-05 13:30S 00°06' W 047°41'5 9.1
2018-Apr-05 13:00S 00°11' W 047°42'4 8.2
2018-Apr-05 12:30S 00°12' W 047°46'510.1
2018-Apr-05 12:00S 00°14' W 047°51'5 9.9
2018-Apr-05 11:30S 00°16' W 047°55'510.7
2018-Apr-05 11:00S 00°19' W 047°60'612.1
2018-Apr-05 10:31S 00°21' W 048°05'1012.7
2018-Apr-05 09:45S 00°26' W 048°13'312.6
2018-Apr-05 09:30S 00°28' W 048°15'713.6
2018-Apr-05 09:00S 00°33' W 048°20'713.8
2018-Apr-05 08:30S 00°39' W 048°24'714.1
2018-Apr-05 08:00S 00°45' W 048°27'612.3
2018-Apr-05 07:31S 00°51' W 048°29'5 9.3
2018-Apr-05 07:00S 00°56' W 048°27'4 8.4
2018-Apr-05 06:30S 00°60' W 048°27'510.7
2018-Apr-05 06:00S 01°04' W 048°30'4 7.6
2018-Apr-05 05:29S 01°08' W 048°32'2 4.5
2018-Apr-05 05:00S 01°10' W 048°32'5 9.1
2018-Apr-05 04:30S 01°13' W 048°35'5 9.3
2018-Apr-05 03:58S 01°17' W 048°38'510.3
2018-Apr-05 03:30S 01°21' W 048°41'510.8
2018-Apr-05 03:00S 01°26' W 048°43'510.8
2018-Apr-05 02:30S 01°31' W 048°45'2 3.2
2018-Apr-05 02:00S 01°33' W 048°45'0 0.1
2018-Apr-05 01:00S 01°32' W 048°45'0 0.0
2018-Apr-05 00:27S 01°32' W 048°45'0 0.0
2018-Apr-05 00:00S 01°32' W 048°45'0 0.0
2018-Apr-04 23:27S 01°32' W 048°45'0 0.0
2018-Apr-04 09:09S 01°32' W 048°45'0 0.0
2018-Apr-04 02:36S 01°32' W 048°45'0 0.0
2018-Apr-04 02:18S 01°32' W 048°45'0 0.0
2018-Apr-04 00:48S 01°32' W 048°45'0 0.0
2018-Apr-04 00:18S 01°32' W 048°45'0 0.0
2018-Apr-03 22:09S 01°32' W 048°45'0 0.0
2018-Apr-03 21:54S 01°32' W 048°45'0 0.0
2018-Apr-03 21:18S 01°32' W 048°45'0 0.0
2018-Apr-03 19:16S 01°32' W 048°45'0 0.0
2018-Apr-03 18:00S 01°32' W 048°45'0 0.0
2018-Apr-03 09:48S 01°32' W 048°45'0 0.0
2018-Apr-02 18:27S 01°32' W 048°45'0 0.0
2018-Apr-02 17:47S 01°32' W 048°45'0 0.0
2018-Apr-02 17:09S 01°32' W 048°45'0 0.0
2018-Apr-02 17:00S 01°32' W 048°45'0 0.0
2018-Apr-02 16:30S 01°32' W 048°45'0 0.0
2018-Apr-02 15:23S 01°32' W 048°45'0 0.0
2018-Apr-02 14:58S 01°32' W 048°45'0 0.0
2018-Apr-02 06:18S 01°32' W 048°45'0 0.0
2018-Apr-02 05:54S 01°32' W 048°45'0 0.0
2018-Apr-02 05:27S 01°32' W 048°45'0 0.0
2018-Apr-02 04:45S 01°32' W 048°45'0 0.0
2018-Apr-02 04:27S 01°32' W 048°45'0 0.0
2018-Apr-02 01:33S 01°32' W 048°45'0 0.0
2018-Apr-02 01:21S 01°32' W 048°45'0 0.0
2018-Apr-02 00:57S 01°32' W 048°45'0 0.0
2018-Apr-01 21:39S 01°32' W 048°45'0 0.0
2018-Apr-01 21:21S 01°32' W 048°45'0 0.0
2018-Apr-01 20:51S 01°32' W 048°45'0 0.0
2018-Apr-01 20:21S 01°32' W 048°45'0 0.0
2018-Apr-01 19:57S 01°32' W 048°45'0 0.0
2018-Apr-01 19:27S 01°32' W 048°45'0 0.0
2018-Apr-01 18:39S 01°32' W 048°45'0 0.0
2018-Apr-01 18:09S 01°32' W 048°45'0 0.0
2018-Apr-01 17:52S 01°32' W 048°45'0 0.0
2018-Apr-01 17:24S 01°32' W 048°45'0 0.0
2018-Apr-01 16:39S 01°32' W 048°45'0 0.0
2018-Apr-01 16:28S 01°32' W 048°45'0 0.0
2018-Apr-01 15:57S 01°32' W 048°45'0 0.0
2018-Apr-01 15:27S 01°32' W 048°45'0 0.0
2018-Apr-01 14:46S 01°32' W 048°45'0 0.0
2018-Apr-01 13:51S 01°32' W 048°45'0 0.0
2018-Apr-01 13:27S 01°32' W 048°45'0 0.0
2018-Apr-01 11:09S 01°32' W 048°45'0 0.0
2018-Apr-01 10:57S 01°32' W 048°45'0 0.0
2018-Apr-01 10:27S 01°32' W 048°45'0 0.0
2018-Apr-01 10:00S 01°32' W 048°45'0 0.0
2018-Apr-01 09:28S 01°32' W 048°45'0 0.0
2018-Apr-01 08:53S 01°32' W 048°45'0 0.0
2018-Apr-01 08:27S 01°32' W 048°45'0 0.0
2018-Apr-01 07:57S 01°32' W 048°45'0 0.0
2018-Apr-01 07:28S 01°32' W 048°45'0 0.0
2018-Apr-01 06:57S 01°32' W 048°45'0 0.0
2018-Apr-01 06:25S 01°32' W 048°45'0 0.0
2018-Apr-01 06:00S 01°32' W 048°45'0 0.0
2018-Apr-01 05:09S 01°32' W 048°45'0 0.0
2018-Apr-01 04:03S 01°32' W 048°45'0 0.0
2018-Apr-01 01:03S 01°32' W 048°45'0 0.0
2018-Mar-31 18:57S 01°32' W 048°45'0 0.0
2018-Mar-31 18:30S 01°32' W 048°45'0 0.0
2018-Mar-31 17:51S 01°32' W 048°45'0 0.0
2018-Mar-31 17:21S 01°32' W 048°45'0 0.0
2018-Mar-31 15:57S 01°32' W 048°45'0 0.0
2018-Mar-31 14:33S 01°32' W 048°45'0 0.0
2018-Mar-31 14:21S 01°32' W 048°45'0 0.0
2018-Mar-31 10:25S 01°32' W 048°45'0 0.0
2018-Mar-31 09:34S 01°32' W 048°45'0 0.0
2018-Mar-31 09:30S 01°32' W 048°45'0 0.0
2018-Mar-31 08:13S 01°32' W 048°45'0 0.0
2018-Mar-31 08:00S 01°32' W 048°45'0 0.0
2018-Mar-31 07:19S 01°32' W 048°45'0 0.0
2018-Mar-31 07:00S 01°32' W 048°45'0 0.0
2018-Mar-31 06:30S 01°32' W 048°45'0 0.0
2018-Mar-31 05:43S 01°32' W 048°45'0 0.0
2018-Mar-31 05:30S 01°32' W 048°45'0 0.0
2018-Mar-31 04:36S 01°32' W 048°45'0 0.0
2018-Mar-31 04:30S 01°32' W 048°45'0 0.0
2018-Mar-31 04:00S 01°32' W 048°45'0 0.0
2018-Mar-31 03:30S 01°32' W 048°45'0 0.0
2018-Mar-31 01:54S 01°32' W 048°45'0 0.0
2018-Mar-31 01:30S 01°32' W 048°45'0 0.0
2018-Mar-31 01:00S 01°32' W 048°45'0 0.0
2018-Mar-31 00:30S 01°32' W 048°45'0 0.0
2018-Mar-31 00:00S 01°32' W 048°45'0 0.0
2018-Mar-30 23:27S 01°32' W 048°45'0 0.0
2018-Mar-30 23:00S 01°32' W 048°45'0 0.0
2018-Mar-30 22:21S 01°32' W 048°45'0 0.0
2018-Mar-30 19:27S 01°32' W 048°45'0 0.0
2018-Mar-30 19:00S 01°32' W 048°45'0 0.0
2018-Mar-30 18:25S 01°32' W 048°45'0 0.0
2018-Mar-30 17:54S 01°32' W 048°45'0 0.0
2018-Mar-30 16:39S 01°32' W 048°45'0 0.0
2018-Mar-30 13:58S 01°32' W 048°45'1 1.6
2018-Mar-30 13:29S 01°32' W 048°46'2 3.8
2018-Mar-30 13:00S 01°31' W 048°46'0 0.1
2018-Mar-30 12:28S 01°31' W 048°46'0 0.0
2018-Mar-30 11:55S 01°31' W 048°46'0 0.0
2018-Mar-30 11:28S 01°31' W 048°46'0 0.4
2018-Mar-30 10:58S 01°30' W 048°46'0 0.1
2018-Mar-30 10:10S 01°30' W 048°46'0 0.0
2018-Mar-30 09:49S 01°30' W 048°46'0 0.0
2018-Mar-30 09:13S 01°30' W 048°46'0 0.0
2018-Mar-30 08:55S 01°30' W 048°46'0 0.0
2018-Mar-30 08:28S 01°30' W 048°46'0 0.0
2018-Mar-30 07:58S 01°30' W 048°46'0 0.0
2018-Mar-30 07:25S 01°30' W 048°46'0 0.0
2018-Mar-30 06:53S 01°30' W 048°46'0 0.0
2018-Mar-30 06:28S 01°30' W 048°46'0 0.0
2018-Mar-30 05:59S 01°30' W 048°46'0 0.0
2018-Mar-30 05:01S 01°30' W 048°46'0 0.1
2018-Mar-30 04:59S 01°30' W 048°46'0 0.2
2018-Mar-30 04:25S 01°30' W 048°46'0 0.2
2018-Mar-30 03:58S 01°31' W 048°46'0 0.1
2018-Mar-30 03:25S 01°31' W 048°46'0 0.0
2018-Mar-30 02:34S 01°31' W 048°46'0 0.0
2018-Mar-30 01:58S 01°31' W 048°46'0 0.0
2018-Mar-30 01:28S 01°31' W 048°46'0 0.0
2018-Mar-30 00:58S 01°31' W 048°46'0 0.0
2018-Mar-30 00:28S 01°31' W 048°46'0 0.0
2018-Mar-29 23:58S 01°31' W 048°46'0 0.0
2018-Mar-29 23:28S 01°31' W 048°46'0 0.0
2018-Mar-29 22:58S 01°31' W 048°46'0 0.0
2018-Mar-29 22:29S 01°31' W 048°46'0 0.2
2018-Mar-29 21:58S 01°31' W 048°46'0 0.3
2018-Mar-29 21:28S 01°30' W 048°46'0 0.1
2018-Mar-29 20:58S 01°30' W 048°46'0 0.0
2018-Mar-29 20:28S 01°30' W 048°46'0 0.0
2018-Mar-29 19:58S 01°30' W 048°46'0 0.0
2018-Mar-29 19:28S 01°30' W 048°46'0 0.0
2018-Mar-29 18:58S 01°30' W 048°46'0 0.0
2018-Mar-29 18:28S 01°30' W 048°46'0 0.1
2018-Mar-29 17:58S 01°30' W 048°46'0 0.1
2018-Mar-29 17:28S 01°31' W 048°46'0 0.1
2018-Mar-29 16:58S 01°31' W 048°46'0 0.0
2018-Mar-29 16:25S 01°31' W 048°46'0 0.3
2018-Mar-29 15:58S 01°31' W 048°46'0 0.1
2018-Mar-29 15:28S 01°31' W 048°46'0 0.1
2018-Mar-29 14:58S 01°31' W 048°46'0 0.0
2018-Mar-29 14:28S 01°31' W 048°46'0 0.0
2018-Mar-29 13:58S 01°31' W 048°46'0 0.1
2018-Mar-29 13:22S 01°31' W 048°46'0 0.0
2018-Mar-29 12:52S 01°31' W 048°46'0 0.1
2018-Mar-29 12:28S 01°31' W 048°46'0 0.0
2018-Mar-29 11:58S 01°31' W 048°46'0 0.0
2018-Mar-29 11:28S 01°31' W 048°46'0 0.1
2018-Mar-29 10:46S 01°31' W 048°46'0 0.0
2018-Mar-29 10:29S 01°31' W 048°46'0 0.2
2018-Mar-29 09:58S 01°30' W 048°46'0 0.3
2018-Mar-29 09:28S 01°30' W 048°46'0 0.1
2018-Mar-29 08:58S 01°30' W 048°46'0 0.1
2018-Mar-29 08:28S 01°30' W 048°46'0 0.0
2018-Mar-29 07:58S 01°30' W 048°46'0 0.1
2018-Mar-29 07:29S 01°30' W 048°46'0 0.0
2018-Mar-29 06:58S 01°30' W 048°46'0 0.0
2018-Mar-29 06:29S 01°30' W 048°46'0 0.0
2018-Mar-29 05:58S 01°30' W 048°46'0 0.0
2018-Mar-29 05:28S 01°30' W 048°46'0 0.0
2018-Mar-29 04:58S 01°30' W 048°46'0 0.1
2018-Mar-29 04:28S 01°30' W 048°46'0 0.4
2018-Mar-29 03:58S 01°30' W 048°46'0 0.1
2018-Mar-29 03:28S 01°31' W 048°46'0 0.0
2018-Mar-29 02:58S 01°31' W 048°46'0 0.0
2018-Mar-29 02:28S 01°31' W 048°46'0 0.0
2018-Mar-29 01:58S 01°31' W 048°46'0 0.0
2018-Mar-29 01:28S 01°31' W 048°46'0 0.0
2018-Mar-29 00:58S 01°31' W 048°46'0 0.0
2018-Mar-29 00:29S 01°31' W 048°46'0 0.0
2018-Mar-28 23:58S 01°31' W 048°46'0 0.0
2018-Mar-28 23:29S 01°31' W 048°46'0 0.0
2018-Mar-28 22:58S 01°31' W 048°46'0 0.0
2018-Mar-28 22:22S 01°31' W 048°46'0 0.0
2018-Mar-28 21:58S 01°31' W 048°46'0 0.0
2018-Mar-28 21:28S 01°31' W 048°46'0 0.2
2018-Mar-28 20:58S 01°31' W 048°46'0 0.2
2018-Mar-28 20:28S 01°30' W 048°46'0 0.1
2018-Mar-28 19:55S 01°30' W 048°46'0 0.0
2018-Mar-28 19:16S 01°30' W 048°46'0 0.1
2018-Mar-28 18:55S 01°30' W 048°46'0 0.3
2018-Mar-28 18:28S 01°30' W 048°46'0 0.0
2018-Mar-28 17:58S 01°30' W 048°46'0 0.0
2018-Mar-28 17:28S 01°30' W 048°46'0 0.0
2018-Mar-28 16:37S 01°30' W 048°46'0 0.0
2018-Mar-28 16:28S 01°30' W 048°46'0 0.2
2018-Mar-28 15:49S 01°31' W 048°46'0 0.2
2018-Mar-28 15:28S 01°31' W 048°46'0 0.1
2018-Mar-28 14:58S 01°31' W 048°46'0 0.1
2018-Mar-28 14:25S 01°31' W 048°46'0 0.0
2018-Mar-28 13:58S 01°31' W 048°46'0 0.0
2018-Mar-28 12:10S 01°31' W 048°46'0 0.0
2018-Mar-28 11:55S 01°31' W 048°46'0 0.0
2018-Mar-28 11:19S 01°31' W 048°46'0 0.0
2018-Mar-28 10:58S 01°31' W 048°46'0 0.0
2018-Mar-28 10:13S 01°31' W 048°46'0 0.0
2018-Mar-28 09:58S 01°31' W 048°46'0 0.0
2018-Mar-28 09:28S 01°31' W 048°46'0 0.3
2018-Mar-28 08:58S 01°30' W 048°46'0 0.2
2018-Mar-28 08:28S 01°30' W 048°46'0 0.1
2018-Mar-28 07:58S 01°30' W 048°46'0 0.0
2018-Mar-28 07:28S 01°30' W 048°46'0 0.0
2018-Mar-28 06:58S 01°30' W 048°46'0 0.0
2018-Mar-28 06:28S 01°30' W 048°46'0 0.0
2018-Mar-28 05:59S 01°30' W 048°46'0 0.0
2018-Mar-28 05:28S 01°30' W 048°46'0 0.0
2018-Mar-28 04:58S 01°30' W 048°46'0 0.0
2018-Mar-28 04:28S 01°30' W 048°46'0 0.1
2018-Mar-28 03:58S 01°30' W 048°46'0 0.0
2018-Mar-28 03:28S 01°30' W 048°46'0 0.3
2018-Mar-28 02:58S 01°30' W 048°46'0 0.4
2018-Mar-28 02:28S 01°31' W 048°46'0 0.0
2018-Mar-28 01:58S 01°31' W 048°46'0 0.1
2018-Mar-28 01:28S 01°31' W 048°46'0 0.1
2018-Mar-28 00:58S 01°31' W 048°46'0 0.0
2018-Mar-28 00:28S 01°31' W 048°46'0 0.0
2018-Mar-27 23:58S 01°31' W 048°46'0 0.0
2018-Mar-27 23:28S 01°31' W 048°46'0 0.0
2018-Mar-27 22:58S 01°31' W 048°46'0 0.1
2018-Mar-27 22:28S 01°31' W 048°46'0 0.0
2018-Mar-27 21:58S 01°31' W 048°46'0 0.1
2018-Mar-27 21:28S 01°31' W 048°46'0 0.0
2018-Mar-27 20:58S 01°31' W 048°46'0 0.1
2018-Mar-27 20:28S 01°31' W 048°46'0 0.2
2018-Mar-27 19:58S 01°31' W 048°46'0 0.1
2018-Mar-27 19:28S 01°31' W 048°46'0 0.1
2018-Mar-27 18:58S 01°30' W 048°46'0 0.1
2018-Mar-27 18:28S 01°30' W 048°46'0 0.0
2018-Mar-27 17:58S 01°30' W 048°46'0 0.0
2018-Mar-27 17:28S 01°30' W 048°46'0 0.0
2018-Mar-27 16:58S 01°30' W 048°46'0 0.0
2018-Mar-27 16:28S 01°30' W 048°46'0 0.0
2018-Mar-27 15:58S 01°30' W 048°46'0 0.0
2018-Mar-27 15:28S 01°30' W 048°46'0 0.2
2018-Mar-27 14:58S 01°31' W 048°46'0 0.2
2018-Mar-27 14:26S 01°31' W 048°46'0 0.2
2018-Mar-27 13:58S 01°31' W 048°46'0 0.1
2018-Mar-27 13:28S 01°31' W 048°46'0 0.0
2018-Mar-27 12:58S 01°31' W 048°46'0 0.0
2018-Mar-27 12:28S 01°31' W 048°46'0 0.0
2018-Mar-27 11:58S 01°31' W 048°46'0 0.0
2018-Mar-27 11:28S 01°31' W 048°46'0 0.0
2018-Mar-27 10:46S 01°31' W 048°46'0 0.0
2018-Mar-27 10:28S 01°31' W 048°46'0 0.0
2018-Mar-27 09:52S 01°31' W 048°46'0 0.0
2018-Mar-27 09:28S 01°31' W 048°46'0 0.0
2018-Mar-27 08:59S 01°31' W 048°46'0 0.0
2018-Mar-27 08:22S 01°31' W 048°46'0 0.2
2018-Mar-27 07:59S 01°30' W 048°46'0 0.2
2018-Mar-27 07:28S 01°30' W 048°46'0 0.1
2018-Mar-27 06:59S 01°30' W 048°46'0 0.0
2018-Mar-27 06:28S 01°30' W 048°46'0 0.0
2018-Mar-27 05:55S 01°30' W 048°46'0 0.0
2018-Mar-27 05:28S 01°30' W 048°46'0 0.0
2018-Mar-27 04:58S 01°30' W 048°46'0 0.0
2018-Mar-27 04:28S 01°30' W 048°46'0 0.0
2018-Mar-27 03:58S 01°30' W 048°46'0 0.0
2018-Mar-27 03:28S 01°30' W 048°46'0 0.0
2018-Mar-27 02:58S 01°30' W 048°46'0 0.0
2018-Mar-27 02:28S 01°30' W 048°46'0 0.1
2018-Mar-27 01:58S 01°30' W 048°46'0 0.2
2018-Mar-27 01:28S 01°30' W 048°46'0 0.1
2018-Mar-27 00:58S 01°31' W 048°46'0 0.1
2018-Mar-27 00:28S 01°31' W 048°46'0 0.1
2018-Mar-26 23:58S 01°31' W 048°46'0 0.0
2018-Mar-26 23:28S 01°31' W 048°46'0 0.0
2018-Mar-26 22:58S 01°31' W 048°46'0 0.1
2018-Mar-26 22:28S 01°31' W 048°46'0 0.0
2018-Mar-26 21:58S 01°31' W 048°46'0 0.0
2018-Mar-26 21:28S 01°31' W 048°46'0 0.0
2018-Mar-26 20:58S 01°31' W 048°46'0 0.1
2018-Mar-26 20:28S 01°31' W 048°46'0 0.0
2018-Mar-26 19:58S 01°31' W 048°46'0 0.0
2018-Mar-26 19:28S 01°31' W 048°46'0 0.2
2018-Mar-26 18:58S 01°31' W 048°46'0 0.1
2018-Mar-26 18:28S 01°31' W 048°46'0 0.1
2018-Mar-26 17:58S 01°30' W 048°46'0 0.0
2018-Mar-26 17:28S 01°30' W 048°46'0 0.0
2018-Mar-26 16:58S 01°30' W 048°46'0 0.0
2018-Mar-26 16:25S 01°30' W 048°46'  

Dump ship's entire track history